Kamysin, Russia
Current Conditions -  °F | °C
As of 5:00 PM on Thursday 23 Oct 2014 (Local Time) from URWW Reporting Station
Clear Clear  
Wind Chill: 21°   Ceiling: Unl
Heat Index: 30°   Visibility: 6mi
Dew Point: 21°   Wind: 11mph
Humidity: 69%   Direction: 10°N
Pressure: 30.12"   Gusts: NA
Location:  50.07°N, 45.37°E
Report Text: URWW 231400Z 01005MPS CAVOK M01/M06 Q1020 NOSIG RMK SC070
Loading
Personal Weather Stations






























Interactive Weather Map
Tropical Storm Tracking
New forecast layout! Learn more

10-Day Weather Forecast

Advertisements
Track Severe Weather on mobile